Time;durP1;ratioP1;P1;durP2;ratioP2;P2;SDS_P1;SDS_P2;PMS_P1;PMS_P2;Temp;Humidity;BMP_temperature;BMP_pressure;BME280_temperature;BME280_humidity;BME280_pressure;Samples;Min_cycle;Max_cycle;Signal;HPM_P1;HPM_P2
2021/03/18 00:02:02;;;;;;;1.15;1.07;;;;;;;2.20;80.67;97157.75;1708991;83;21156;-63
2021/03/18 00:04:31;;;;;;;1.67;1.10;;;;;;;2.18;80.85;97158.34;1690639;84;21632;-64
2021/03/18 00:06:59;;;;;;;3.60;1.37;;;;;;;2.19;80.54;97161.23;1709081;83;21585;-63
2021/03/18 00:09:27;;;;;;;1.90;1.10;;;;;;;2.17;80.67;97159.25;1708946;83;21613;-62
2021/03/18 00:11:55;;;;;;;1.52;1.37;;;;;;;2.17;80.48;97158.80;1709001;83;21568;-63
2021/03/18 00:14:25;;;;;;;1.30;0.90;;;;;;;2.17;80.58;97166.94;1708971;83;21181;-63
2021/03/18 00:16:52;;;;;;;2.35;1.37;;;;;;;2.17;80.26;97158.80;1690697;83;21223;-63
2021/03/18 00:19:21;;;;;;;1.95;1.42;;;;;;;2.15;80.41;97161.09;1708919;83;21566;-63
2021/03/18 00:21:50;;;;;;;2.50;1.17;;;;;;;2.15;80.09;97163.19;1690527;84;21228;-62
2021/03/18 00:24:18;;;;;;;1.95;1.22;;;;;;;2.15;80.17;97163.19;1708873;83;21194;-62
2021/03/18 00:26:48;;;;;;;2.45;0.90;;;;;;;2.14;80.33;97162.05;1708897;83;21205;-62
2021/03/18 00:29:16;;;;;;;2.35;1.40;;;;;;;2.14;80.19;97162.05;1708930;83;21149;-62
2021/03/18 00:31:46;;;;;;;1.92;1.02;;;;;;;2.13;80.17;97161.22;1707283;83;21638;-62
2021/03/18 00:34:15;;;;;;;2.15;1.50;;;;;;;2.12;80.00;97162.14;1708829;83;21586;-61
2021/03/18 00:36:44;;;;;;;1.30;0.60;;;;;;;2.11;80.06;97164.34;1708866;83;21220;-61
2021/03/18 00:39:12;;;;;;;3.05;1.55;;;;;;;2.10;80.21;97180.63;1690610;83;21317;-61
2021/03/18 00:41:40;;;;;;;2.20;1.55;;;;;;;2.07;80.37;97171.06;1708737;83;21229;-61
2021/03/18 00:44:08;;;;;;;3.33;2.05;;;;;;;2.07;80.52;97167.23;1709005;83;21173;-61
2021/03/18 00:46:36;;;;;;;1.37;1.07;;;;;;;2.08;80.29;97169.69;1708908;83;21672;-63
2021/03/18 00:49:05;;;;;;;2.30;1.60;;;;;;;2.01;80.41;97156.97;1708921;83;21165;-62
2021/03/18 00:51:34;;;;;;;3.00;1.92;;;;;;;2.07;80.21;97167.23;1708906;83;21243;-62
2021/03/18 00:54:02;;;;;;;1.77;1.57;;;;;;;2.06;80.22;97174.12;1707708;82;21227;-62
2021/03/18 00:56:30;;;;;;;2.22;1.45;;;;;;;2.06;80.01;97166.89;1716750;83;21184;-62
2021/03/18 00:59:00;;;;;;;3.70;2.37;;;;;;;2.04;80.44;97167.45;1716909;82;21177;-62
2021/03/18 01:01:29;;;;;;;2.12;1.50;;;;;;;2.02;80.51;97168.04;1716716;82;21180;-62
2021/03/18 01:03:59;;;;;;;2.35;1.40;;;;;;;1.99;80.73;97171.61;1716822;82;21165;-61
2021/03/18 01:06:29;;;;;;;1.50;1.20;;;;;;;1.96;80.96;97169.28;1716800;82;21673;-62
2021/03/18 01:09:00;;;;;;;2.42;1.55;;;;;;;1.96;80.61;97168.00;1716918;82;21171;-61
2021/03/18 01:11:36;;;;;;;3.10;1.57;;;;;;;1.96;80.58;97164.62;1717088;82;21649;-61
2021/03/18 01:14:13;;;;;;;2.08;1.17;;;;;;;1.94;80.85;97163.47;1716850;82;21203;-62
2021/03/18 01:16:51;;;;;;;3.95;2.22;;;;;;;1.93;80.69;97166.94;1716842;82;21205;-65
2021/03/18 01:19:21;;;;;;;3.00;1.92;;;;;;;1.94;80.58;97166.02;1716741;82;21180;-63
2021/03/18 01:21:55;;;;;;;1.87;1.65;;;;;;;1.96;80.86;97167.17;1716936;82;21177;-63
2021/03/18 01:24:23;;;;;;;5.12;1.82;;;;;;;1.93;80.66;97165.66;1716756;82;21173;-65
2021/03/18 01:26:51;;;;;;;1.90;1.40;;;;;;;1.89;80.58;97162.50;1716837;82;21141;-64
2021/03/18 01:29:19;;;;;;;3.17;2.47;;;;;;;1.86;81.12;97169.12;1716721;83;21184;-64
2021/03/18 01:31:49;;;;;;;2.85;2.20;;;;;;;1.88;80.78;97164.70;1716636;82;21215;-62
2021/03/18 01:34:17;;;;;;;2.33;1.62;;;;;;;1.86;81.04;97161.45;1716875;82;21192;-63
2021/03/18 01:36:46;;;;;;;1.57;1.25;;;;;;;1.83;81.69;97163.38;1717089;82;21174;-63
2021/03/18 01:39:13;;;;;;;3.20;1.95;;;;;;;1.84;81.09;97160.72;1716904;82;21586;-60
2021/03/18 01:41:42;;;;;;;2.98;1.92;;;;;;;1.84;81.76;97164.56;1716743;82;21201;-64
2021/03/18 01:44:10;;;;;;;1.47;1.37;;;;;;;1.81;82.28;97163.97;1716820;82;21184;-64
2021/03/18 01:46:38;;;;;;;1.82;1.30;;;;;;;1.81;82.46;97160.95;1716952;82;21256;-63
2021/03/18 01:49:07;;;;;;;4.22;1.65;;;;;;;1.79;83.02;97163.27;1716944;82;21176;-64
2021/03/18 01:51:35;;;;;;;2.37;1.85;;;;;;;1.79;82.93;97161.99;1717000;82;21145;-63
2021/03/18 01:54:03;;;;;;;3.45;2.27;;;;;;;1.72;83.47;97160.77;1714814;83;21152;-67
2021/03/18 01:56:31;;;;;;;3.77;2.20;;;;;;;1.72;83.80;97163.32;1713784;82;21141;-63
2021/03/18 01:58:59;;;;;;;1.95;1.85;;;;;;;1.76;83.48;97167.30;1713656;82;21193;-63
2021/03/18 02:01:27;;;;;;;2.62;1.75;;;;;;;1.74;83.43;97169.17;1713698;82;21723;-63
2021/03/18 02:03:58;;;;;;;1.98;1.30;;;;;;;1.69;83.63;97173.32;1713802;83;21185;-66
2021/03/18 02:06:27;;;;;;;3.70;2.47;;;;;;;1.73;83.53;97176.48;1713803;82;21746;-65
2021/03/18 02:08:55;;;;;;;2.85;1.90;;;;;;;1.72;83.57;97170.55;1685833;82;21625;-64
2021/03/18 02:11:23;;;;;;;3.20;2.20;;;;;;;1.68;83.52;97180.64;1713725;82;21165;-64
2021/03/18 02:13:51;;;;;;;2.45;2.25;;;;;;;1.69;83.51;97174.60;1713684;82;21216;-64
2021/03/18 02:16:19;;;;;;;2.75;1.98;;;;;;;1.75;83.15;97181.05;1713864;82;21610;-62
2021/03/18 02:19:08;;;;;;;2.55;1.70;;;;;;;1.73;83.36;97180.32;1685781;84;21260;-63
2021/03/18 02:21:54;;;;;;;3.77;1.77;;;;;;;1.68;82.78;97192.16;1713919;82;21133;-63
2021/03/18 02:24:42;;;;;;;3.37;2.75;;;;;;;1.63;83.55;97189.13;1714489;82;21542;-63
2021/03/18 02:27:34;;;;;;;2.22;2.00;;;;;;;1.67;83.37;97194.38;1714372;82;21256;-63
2021/03/18 02:30:35;;;;;;;2.50;2.08;;;;;;;1.65;83.33;97192.38;1714371;82;21314;-63
2021/03/18 02:33:50;;;;;;;3.90;2.85;;;;;;;1.66;83.30;97195.76;1773812;80;21262;-62
2021/03/18 02:36:29;;;;;;;3.40;2.33;;;;;;;1.58;83.75;97200.12;1705359;83;21171;-65
2021/03/18 02:39:05;;;;;;;12.10;2.22;;;;;;;1.63;83.58;97192.95;1722393;83;21222;-64
2021/03/18 02:41:47;;;;;;;1.98;1.47;;;;;;;1.59;83.85;97200.48;1722467;83;21175;-63
2021/03/18 02:44:23;;;;;;;2.70;2.17;;;;;;;1.56;83.89;97202.41;1722283;82;21163;-72
2021/03/18 02:47:04;;;;;;;2.57;2.07;;;;;;;1.59;83.43;97199.67;1722454;83;21223;-66
2021/03/18 02:49:37;;;;;;;3.80;1.92;;;;;;;1.58;83.72;97205.24;1722128;83;22310;-71
2021/03/18 02:52:09;;;;;;;3.62;1.77;;;;;;;1.59;83.80;97206.06;1721899;83;21556;-63
2021/03/18 02:54:39;;;;;;;3.02;2.00;;;;;;;1.61;83.85;97211.42;1722057;83;21160;-63
2021/03/18 02:57:10;;;;;;;4.45;3.12;;;;;;;1.61;83.72;97203.75;1722067;83;21168;-67
2021/03/18 02:59:42;;;;;;;5.20;2.55;;;;;;;1.55;83.97;97214.42;1721920;82;21156;-64
2021/03/18 03:02:21;;;;;;;2.62;2.05;;;;;;;1.44;84.64;97205.35;1721787;83;21159;-65
2021/03/18 03:04:55;;;;;;;3.00;1.67;;;;;;;1.39;84.74;97212.55;1721718;83;21524;-63
2021/03/18 03:07:26;;;;;;;3.55;2.58;;;;;;;1.42;84.79;97213.16;1721829;82;21203;-63
2021/03/18 03:10:00;;;;;;;3.80;2.15;;;;;;;1.38;85.19;97213.46;1721521;83;21148;-64
2021/03/18 03:12:31;;;;;;;2.72;2.12;;;;;;;1.28;85.54;97213.28;1691425;83;21175;-63
2021/03/18 03:15:00;;;;;;;3.83;2.98;;;;;;;1.25;85.78;97216.02;1721589;83;21144;-64
2021/03/18 03:17:30;;;;;;;2.37;1.70;;;;;;;1.29;85.63;97220.02;1721721;83;21569;-63
2021/03/18 03:20:01;;;;;;;2.80;1.75;;;;;;;1.23;85.86;97215.78;1721692;82;21175;-65
2021/03/18 03:22:33;;;;;;;3.40;2.25;;;;;;;1.29;85.58;97221.75;1721631;83;21164;-63
2021/03/18 03:25:05;;;;;;;1.87;1.30;;;;;;;1.24;85.71;97213.13;1721662;83;21175;-62
2021/03/18 03:27:34;;;;;;;4.17;2.35;;;;;;;1.26;85.76;97213.01;1721607;83;21164;-63
2021/03/18 03:30:06;;;;;;;3.20;2.22;;;;;;;1.25;85.85;97222.42;1721509;83;21556;-64
2021/03/18 03:32:35;;;;;;;3.08;2.33;;;;;;;1.27;85.81;97216.75;1721668;83;21132;-62
2021/03/18 03:35:07;;;;;;;3.42;2.12;;;;;;;1.28;85.71;97215.84;1731038;82;21609;-62
2021/03/18 03:37:35;;;;;;;2.62;1.87;;;;;;;1.29;85.54;97215.35;1681870;85;21206;-64
2021/03/18 03:40:08;;;;;;;2.77;2.02;;;;;;;1.27;85.38;97217.21;1743405;82;21666;-64
2021/03/18 03:42:37;;;;;;;2.80;2.05;;;;;;;1.27;85.41;97223.60;1710272;84;21653;-62
2021/03/18 03:45:09;;;;;;;2.30;1.75;;;;;;;1.29;85.40;97225.58;1681783;85;21724;-64
2021/03/18 03:47:38;;;;;;;3.50;2.90;;;;;;;1.24;85.67;97222.54;1743226;82;21554;-63
2021/03/18 03:50:11;;;;;;;3.65;2.22;;;;;;;1.22;85.68;97225.19;1710145;84;21243;-65
2021/03/18 03:52:44;;;;;;;3.92;2.42;;;;;;;1.18;85.89;97230.15;1743235;82;21168;-62
2021/03/18 03:55:24;;;;;;;3.30;2.58;;;;;;;1.23;85.74;97234.96;1739469;82;21596;-64
2021/03/18 03:58:03;;;;;;;2.85;2.00;;;;;;;1.21;85.74;97234.23;1680998;85;21202;-64
2021/03/18 04:00:32;;;;;;;2.87;1.60;;;;;;;1.24;85.61;97238.70;1743284;82;21139;-62
2021/03/18 04:03:04;;;;;;;3.85;2.70;;;;;;;1.23;85.70;97242.17;1681722;85;21744;-64
2021/03/18 04:05:35;;;;;;;4.33;2.45;;;;;;;1.26;85.58;97239.86;1743450;82;21156;-62
2021/03/18 04:08:07;;;;;;;3.60;2.33;;;;;;;1.25;85.67;97245.44;1681851;85;22437;-63
2021/03/18 04:10:36;;;;;;;4.47;1.42;;;;;;;1.30;85.37;97242.12;1743208;82;21128;-62
2021/03/18 04:13:06;;;;;;;6.20;1.90;;;;;;;1.32;85.27;97234.35;1710213;84;21176;-64
2021/03/18 04:15:35;;;;;;;4.40;2.72;;;;;;;1.33;85.31;97243.64;1743302;82;21573;-64
2021/03/18 04:18:07;;;;;;;4.45;3.42;;;;;;;1.32;85.53;97240.26;1710275;84;21569;-62
2021/03/18 04:20:39;;;;;;;4.40;2.87;;;;;;;1.37;85.61;97242.52;1743251;82;21629;-63
2021/03/18 04:23:10;;;;;;;5.67;2.77;;;;;;;1.32;85.44;97245.38;1683953;84;21240;-62
2021/03/18 04:25:40;;;;;;;4.75;2.52;;;;;;;1.19;86.18;97243.30;1698363;84;21179;-62
2021/03/18 04:28:09;;;;;;;3.70;2.20;;;;;;;1.21;85.98;97246.56;1738504;82;21164;-65
2021/03/18 04:30:41;;;;;;;3.50;2.62;;;;;;;1.27;85.76;97250.00;1738441;82;21133;-64
2021/03/18 04:33:11;;;;;;;3.92;2.67;;;;;;;1.30;85.78;97245.13;1738482;82;21243;-63
2021/03/18 04:35:41;;;;;;;2.15;1.80;;;;;;;1.33;85.80;97242.36;1738537;82;21200;-63
2021/03/18 04:38:11;;;;;;;3.85;2.17;;;;;;;1.39;85.58;97250.92;1738437;82;21639;-63
2021/03/18 04:40:40;;;;;;;3.72;2.08;;;;;;;1.40;85.25;97254.63;1738420;82;21137;-63
2021/03/18 04:43:09;;;;;;;4.37;2.85;;;;;;;1.49;85.18;97258.31;1738577;82;21605;-63
2021/03/18 04:45:39;;;;;;;14.40;10.82;;;;;;;1.46;85.33;97260.27;1738476;82;21584;-63
2021/03/18 04:48:08;;;;;;;8.50;6.85;;;;;;;1.51;85.30;97262.06;1738529;82;21196;-64
2021/03/18 04:50:39;;;;;;;6.22;3.50;;;;;;;1.52;85.32;97256.83;1738633;82;21156;-62
2021/03/18 04:53:07;;;;;;;6.22;3.02;;;;;;;1.55;85.12;97263.49;1738682;82;21600;-62
2021/03/18 04:55:35;;;;;;;3.55;2.25;;;;;;;1.52;84.91;97255.55;1738637;82;21180;-62
2021/03/18 04:58:10;;;;;;;3.45;2.27;;;;;;;1.48;84.87;97266.91;1738710;82;21148;-61
2021/03/18 05:00:40;;;;;;;4.30;2.37;;;;;;;1.50;84.71;97271.48;1738662;82;21141;-62
2021/03/18 05:03:10;;;;;;;5.00;2.92;;;;;;;1.42;85.04;97270.72;1738689;82;21227;-62
2021/03/18 05:05:40;;;;;;;4.50;2.30;;;;;;;1.48;84.91;97273.30;1719844;82;21168;-65
2021/03/18 05:08:09;;;;;;;4.15;2.60;;;;;;;1.43;85.20;97272.36;1738587;82;21150;-64
2021/03/18 05:10:41;;;;;;;6.60;3.12;;;;;;;1.47;85.07;97271.69;1738658;82;21160;-64
2021/03/18 05:13:11;;;;;;;2.87;2.45;;;;;;;1.51;85.10;97271.02;1734305;82;21641;-65
2021/03/18 05:15:40;;;;;;;3.20;2.47;;;;;;;1.53;85.16;97271.72;1723622;82;21248;-64
2021/03/18 05:18:12;;;;;;;3.58;2.15;;;;;;;1.51;84.96;97276.14;1745369;82;21216;-64
2021/03/18 05:20:46;;;;;;;2.70;2.22;;;;;;;1.53;84.97;97273.82;1721540;82;21145;-64
2021/03/18 05:23:17;;;;;;;4.20;2.42;;;;;;;1.51;85.10;97274.40;1713364;84;21227;-64
2021/03/18 05:25:47;;;;;;;3.35;2.70;;;;;;;1.59;84.71;97278.54;1713378;83;21286;-64
2021/03/18 05:28:16;;;;;;;4.50;3.12;;;;;;;1.60;84.72;97282.71;1713570;82;21213;-64
2021/03/18 05:30:44;;;;;;;3.20;1.80;;;;;;;1.61;84.77;97289.48;1713485;83;21295;-64
2021/03/18 05:33:13;;;;;;;3.52;2.17;;;;;;;1.64;84.51;97288.44;1713573;84;21169;-64
2021/03/18 05:35:43;;;;;;;3.67;2.42;;;;;;;1.67;84.35;97302.33;1723958;82;21160;-69
2021/03/18 05:38:14;;;;;;;4.22;2.45;;;;;;;1.69;84.14;97299.19;1737120;82;21171;-71
2021/03/18 05:40:46;;;;;;;3.70;2.10;;;;;;;1.85;87.03;97289.55;1737139;82;21171;-70
2021/03/18 05:43:14;;;;;;;3.67;2.72;;;;;;;2.04;87.77;97295.03;1737082;82;21603;-73
2021/03/18 05:45:43;;;;;;;6.58;2.58;;;;;;;2.07;85.89;97300.39;1737229;82;21136;-70
2021/03/18 05:48:13;;;;;;;4.03;3.00;;;;;;;2.11;85.67;97294.96;1737066;82;21133;-64
2021/03/18 05:50:43;;;;;;;3.72;2.62;;;;;;;2.30;85.50;97295.30;1737125;82;21228;-64
2021/03/18 05:53:12;;;;;;;3.27;1.98;;;;;;;2.55;85.88;97298.70;1737154;82;21136;-63
2021/03/18 05:55:41;;;;;;;9.35;3.45;;;;;;;2.56;83.14;97300.34;1737272;82;21164;-63
2021/03/18 05:58:12;;;;;;;5.60;3.05;;;;;;;2.59;82.56;97300.94;1731361;81;21694;-63
2021/03/18 06:00:40;;;;;;;9.55;2.72;;;;;;;2.49;81.67;97303.79;1720131;83;21588;-64
2021/03/18 06:03:08;;;;;;;5.78;3.22;;;;;;;2.52;81.79;97307.90;1714931;84;21286;-62
2021/03/18 06:05:39;;;;;;;4.28;2.60;;;;;;;2.52;82.17;97314.30;1685028;84;21189;-64
2021/03/18 06:08:09;;;;;;;5.95;3.00;;;;;;;2.28;81.85;97313.00;1714803;82;21171;-63
2021/03/18 06:10:37;;;;;;;4.37;2.57;;;;;;;2.38;82.32;97313.52;1714897;82;21301;-63
2021/03/18 06:13:06;;;;;;;3.98;3.30;;;;;;;2.42;82.56;97306.89;1714680;84;21711;-62
2021/03/18 06:15:34;;;;;;;6.37;3.72;;;;;;;2.26;82.34;97321.24;1714732;84;21714;-63
2021/03/18 06:18:03;;;;;;;10.85;4.10;;;;;;;2.19;82.79;97319.58;1714872;82;21690;-63
2021/03/18 06:20:31;;;;;;;4.12;2.77;;;;;;;2.17;82.94;97325.28;1686432;84;21606;-62
2021/03/18 06:23:05;;;;;;;6.83;4.47;;;;;;;2.20;83.31;97326.80;1714623;83;21191;-62
2021/03/18 06:25:40;;;;;;;3.75;2.98;;;;;;;2.16;83.38;97332.61;1714673;82;21150;-62
2021/03/18 06:28:33;;;;;;;5.85;2.95;;;;;;;2.17;83.21;97334.25;1714895;84;21229;-63
2021/03/18 06:31:14;;;;;;;10.10;4.58;;;;;;;2.26;83.24;97334.88;1774932;81;21168;-63
2021/03/18 06:33:48;;;;;;;4.42;2.92;;;;;;;2.32;82.96;97337.03;1775050;80;21148;-63
2021/03/18 06:36:26;;;;;;;11.57;3.27;;;;;;;2.33;82.49;97338.64;1773982;81;21140;-68
2021/03/18 06:39:35;;;;;;;4.43;3.30;;;;;;;2.35;82.98;97343.67;1775314;81;21153;-63
2021/03/18 06:42:04;;;;;;;4.87;3.60;;;;;;;2.32;82.93;97338.31;1753732;81;22320;-62
2021/03/18 06:44:32;;;;;;;4.92;2.80;;;;;;;2.42;82.36;97341.03;1717313;83;21531;-64
2021/03/18 06:47:10;;;;;;;7.30;4.62;;;;;;;2.56;82.52;97345.20;1717379;83;21134;-64
2021/03/18 06:49:38;;;;;;;6.45;3.85;;;;;;;2.70;82.63;97350.16;1717382;82;21590;-64
2021/03/18 06:52:12;;;;;;;4.67;2.85;;;;;;;2.79;82.42;97354.18;1717420;82;21197;-63
2021/03/18 06:54:43;;;;;;;10.70;4.37;;;;;;;2.87;82.05;97349.78;1717386;82;21236;-63
2021/03/18 06:57:15;;;;;;;4.83;3.55;;;;;;;2.93;82.14;97350.61;1728057;81;21198;-63
2021/03/18 06:59:43;;;;;;;5.25;2.30;;;;;;;3.02;81.31;97348.67;1759826;81;21149;-67
2021/03/18 07:02:17;;;;;;;4.45;2.27;;;;;;;2.97;80.83;97351.20;1760142;81;21214;-63
2021/03/18 07:04:53;;;;;;;7.55;3.08;;;;;;;2.99;80.40;97351.47;1760001;81;21704;-64
2021/03/18 07:07:25;;;;;;;5.37;3.00;;;;;;;3.07;79.94;97355.58;1759861;81;21144;-63
2021/03/18 07:09:56;;;;;;;3.98;2.55;;;;;;;3.12;80.33;97356.05;1759978;81;21617;-63
2021/03/18 07:12:31;;;;;;;4.30;2.87;;;;;;;3.24;80.25;97353.05;1760063;81;21209;-63
2021/03/18 07:15:00;;;;;;;4.35;2.72;;;;;;;3.33;79.57;97357.52;1759955;81;21578;-67
2021/03/18 07:17:35;;;;;;;4.45;2.60;;;;;;;3.25;79.25;97355.98;1760064;81;21586;-63
2021/03/18 07:20:18;;;;;;;5.28;3.40;;;;;;;3.27;79.09;97352.82;1760463;81;21153;-63
2021/03/18 07:22:56;;;;;;;5.17;3.27;;;;;;;3.44;79.14;97360.11;1759960;81;21148;-75
2021/03/18 07:25:28;;;;;;;4.87;3.08;;;;;;;3.54;79.09;97353.84;1760121;81;21614;-63
2021/03/18 07:28:01;;;;;;;10.65;3.12;;;;;;;3.56;78.79;97350.69;1760103;81;21165;-62
2021/03/18 07:30:36;;;;;;;4.70;2.70;;;;;;;3.66;78.98;97351.16;1759914;81;21197;-63
2021/03/18 07:33:06;;;;;;;6.20;3.02;;;;;;;3.70;78.42;97353.84;1760023;81;21227;-64
2021/03/18 07:35:36;;;;;;;4.97;3.00;;;;;;;3.65;77.09;97348.73;1760058;81;21153;-64
2021/03/18 07:38:04;;;;;;;5.83;3.22;;;;;;;3.63;77.73;97345.44;1760029;81;21581;-64
2021/03/18 07:40:33;;;;;;;3.10;2.47;;;;;;;3.55;79.65;97351.61;1761937;81;21191;-64
2021/03/18 07:43:01;;;;;;;4.25;2.50;;;;;;;3.63;78.12;97352.67;1768322;81;21290;-64
2021/03/18 07:45:31;;;;;;;4.72;2.92;;;;;;;3.72;77.94;97348.61;1768188;81;21160;-64
2021/03/18 07:48:00;;;;;;;8.20;3.25;;;;;;;3.71;77.46;97348.25;1768823;81;21357;-64
2021/03/18 07:50:32;;;;;;;5.45;3.15;;;;;;;3.53;76.65;97354.77;1768357;81;21125;-67
2021/03/18 07:53:02;;;;;;;4.37;3.12;;;;;;;3.51;77.01;97351.48;1768258;81;21597;-65
2021/03/18 07:55:33;;;;;;;5.35;3.27;;;;;;;3.39;77.22;97333.95;1768279;81;21156;-65
2021/03/18 07:58:01;;;;;;;4.40;3.35;;;;;;;3.27;76.78;97360.52;1768558;81;21334;-64
2021/03/18 08:00:33;;;;;;;3.87;2.50;;;;;;;3.50;77.12;97355.80;1768632;81;21702;-64
2021/03/18 08:03:43;;;;;;;7.00;2.85;;;;;;;3.55;76.97;97356.28;1768469;81;21201;-63
2021/03/18 08:06:13;;;;;;;3.33;2.67;;;;;;;3.62;77.47;97364.36;1641762;86;21665;-64
2021/03/18 08:08:42;;;;;;;5.55;2.92;;;;;;;3.51;76.97;97365.60;1641623;86;21190;-66
2021/03/18 08:11:16;;;;;;;4.85;3.30;;;;;;;3.45;77.98;97369.45;1693205;83;21539;-64
2021/03/18 08:13:46;;;;;;;3.27;2.65;;;;;;;3.28;77.68;97372.42;1736285;83;21238;-65
2021/03/18 08:16:49;;;;;;;6.00;3.08;;;;;;;3.40;78.15;97373.28;1736079;83;21579;-65
2021/03/18 08:19:20;;;;;;;5.25;3.22;;;;;;;3.35;77.97;97365.91;1736526;82;21202;-64
2021/03/18 08:21:54;;;;;;;6.80;4.12;;;;;;;3.40;77.60;97372.00;1736365;83;21179;-64
2021/03/18 08:24:25;;;;;;;6.60;3.62;;;;;;;3.44;78.00;97369.56;1736105;83;21182;-66
2021/03/18 08:27:03;;;;;;;5.75;3.58;;;;;;;3.53;77.53;97361.19;1705607;83;21231;-64
2021/03/18 08:29:45;;;;;;;4.67;2.75;;;;;;;3.69;77.15;97366.36;1736287;83;21190;-64
2021/03/18 08:32:45;;;;;;;6.80;2.80;;;;;;;3.80;77.11;97371.50;1736078;83;21171;-64
2021/03/18 08:35:27;;;;;;;3.60;2.52;;;;;;;3.90;77.19;97369.05;1714388;83;21188;-67
2021/03/18 08:38:29;;;;;;;5.47;2.70;;;;;;;3.97;76.33;97375.34;1720990;83;21212;-74
2021/03/18 08:41:02;;;;;;;5.00;3.85;;;;;;;3.87;76.45;97375.70;1690145;84;21138;-65
2021/03/18 08:43:30;;;;;;;3.90;2.65;;;;;;;3.83;75.89;97372.55;1701053;83;21229;-69
2021/03/18 08:45:58;;;;;;;4.45;2.75;;;;;;;3.95;76.44;97373.84;1700700;84;21314;-64
2021/03/18 08:48:27;;;;;;;8.35;3.12;;;;;;;3.90;76.32;97372.08;1700668;84;21166;-65
2021/03/18 08:51:02;;;;;;;8.18;3.98;;;;;;;3.93;76.30;97377.80;1700433;83;21300;-64
2021/03/18 08:53:53;;;;;;;5.00;3.25;;;;;;;3.82;76.39;97379.90;1672550;84;21582;-63
2021/03/18 08:56:28;;;;;;;4.03;2.47;;;;;;;3.87;77.05;97376.98;1754302;80;21165;-63
2021/03/18 08:58:57;;;;;;;5.58;2.65;;;;;;;3.82;77.29;97378.61;1750400;80;21205;-63
2021/03/18 09:01:26;;;;;;;6.10;3.00;;;;;;;3.86;77.32;97379.66;1754372;80;21129;-63
2021/03/18 09:03:58;;;;;;;4.97;2.85;;;;;;;3.92;77.09;97382.61;1754216;80;21225;-63
2021/03/18 09:06:29;;;;;;;5.17;3.22;;;;;;;3.82;76.95;97382.47;1754224;82;21665;-63
2021/03/18 09:08:57;;;;;;;5.00;3.25;;;;;;;3.86;77.62;97381.77;1754196;81;21169;-63
2021/03/18 09:11:26;;;;;;;3.83;2.65;;;;;;;3.97;77.47;97384.34;1754259;82;21578;-63
2021/03/18 09:13:55;;;;;;;6.67;3.00;;;;;;;4.00;77.80;97379.45;1754320;81;21133;-63
2021/03/18 09:16:24;;;;;;;3.52;2.62;;;;;;;4.09;76.81;97386.45;1754289;82;21216;-63
2021/03/18 09:19:00;;;;;;;7.12;3.58;;;;;;;4.11;77.07;97393.13;1754115;81;21590;-63
2021/03/18 09:21:43;;;;;;;4.72;2.67;;;;;;;4.07;76.64;97389.61;1754436;81;21165;-62
2021/03/18 09:24:12;;;;;;;6.45;2.87;;;;;;;4.12;76.70;97397.80;1754315;80;21231;-62
2021/03/18 09:26:47;;;;;;;4.85;2.98;;;;;;;4.03;76.92;97396.73;1748164;80;21201;-63
2021/03/18 09:29:15;;;;;;;6.35;3.80;;;;;;;4.02;76.73;97401.98;1749141;81;21149;-63
2021/03/18 09:31:44;;;;;;;4.62;2.55;;;;;;;4.14;76.40;97403.16;1728725;81;21205;-63
2021/03/18 09:34:12;;;;;;;6.15;3.20;;;;;;;4.19;76.62;97398.50;1749221;81;21178;-63
2021/03/18 09:36:43;;;;;;;4.05;2.72;;;;;;;4.29;76.45;97394.28;1749154;81;21137;-62
2021/03/18 09:39:14;;;;;;;5.70;3.40;;;;;;;4.30;76.07;97395.10;1749182;81;21173;-63
2021/03/18 09:41:48;;;;;;;5.12;3.85;;;;;;;4.46;76.60;97396.84;1749295;81;21629;-63
2021/03/18 09:44:29;;;;;;;4.60;3.00;;;;;;;4.56;76.41;97400.80;1749612;81;21525;-63
2021/03/18 09:47:04;;;;;;;5.30;3.25;;;;;;;4.62;75.57;97398.59;1749215;81;21165;-63
2021/03/18 09:49:42;;;;;;;4.20;2.50;;;;;;;4.58;75.33;97396.37;1749342;81;21578;-63
2021/03/18 09:52:25;;;;;;;6.12;3.58;;;;;;;4.66;76.13;97399.98;1749383;81;21558;-65
2021/03/18 09:54:56;;;;;;;4.35;3.17;;;;;;;4.72;75.67;97394.81;1749112;81;21165;-63
2021/03/18 09:57:30;;;;;;;3.45;2.67;;;;;;;4.55;74.29;97398.69;1749222;81;21170;-63
2021/03/18 10:00:01;;;;;;;4.35;2.80;;;;;;;4.63;74.21;97392.98;1749355;81;21134;-63
2021/03/18 10:02:31;;;;;;;3.10;2.10;;;;;;;4.74;75.14;97393.77;1749400;81;21189;-63
2021/03/18 10:04:59;;;;;;;4.03;2.10;;;;;;;4.84;74.21;97391.74;1749219;81;21149;-63
2021/03/18 10:07:31;;;;;;;2.95;2.22;;;;;;;4.98;75.20;97387.63;1749221;81;21610;-63
2021/03/18 10:10:00;;;;;;;5.55;2.05;;;;;;;5.13;75.27;97397.52;1749148;81;21166;-63
2021/03/18 10:12:30;;;;;;;4.25;2.00;;;;;;;5.41;74.65;97399.16;1749126;81;21811;-62
2021/03/18 10:15:09;;;;;;;3.25;1.98;;;;;;;5.60;73.78;97393.64;1749041;81;21182;-63
2021/03/18 10:17:42;;;;;;;2.05;1.45;;;;;;;5.75;73.37;97391.59;1749126;81;21567;-62
2021/03/18 10:20:32;;;;;;;3.20;1.75;;;;;;;5.97;72.90;97392.75;1754007;81;21157;-63
2021/03/18 10:23:11;;;;;;;4.55;2.90;;;;;;;5.97;70.22;97390.17;1754649;81;21161;-62
2021/03/18 10:25:40;;;;;;;3.12;2.35;;;;;;;5.91;70.86;97390.70;1754567;81;21201;-64
2021/03/18 10:28:13;;;;;;;2.75;1.82;;;;;;;6.09;69.93;97384.00;1754766;81;21161;-65
2021/03/18 10:30:45;;;;;;;2.58;1.40;;;;;;;6.41;71.25;97378.70;1754603;81;22260;-64
2021/03/18 10:33:25;;;;;;;2.30;1.37;;;;;;;6.65;67.97;97379.16;1754561;81;21160;-64
2021/03/18 10:35:58;;;;;;;3.15;1.85;;;;;;;6.51;65.99;97379.53;1754587;81;21164;-64
2021/03/18 10:38:56;;;;;;;3.15;1.87;;;;;;;6.74;67.31;97379.30;1754754;81;21224;-64
2021/03/18 10:41:24;;;;;;;3.95;1.95;;;;;;;6.99;67.72;97379.64;1715630;83;21613;-64
2021/03/18 10:43:52;;;;;;;2.65;1.82;;;;;;;7.18;65.01;97383.98;1716016;83;21172;-65
2021/03/18 10:46:33;;;;;;;3.77;2.50;;;;;;;7.34;64.78;97393.31;1716062;82;21589;-65
2021/03/18 10:49:07;;;;;;;2.90;1.98;;;;;;;7.60;64.43;97385.80;1715937;82;21219;-64
2021/03/18 10:51:46;;;;;;;2.92;1.77;;;;;;;7.59;61.94;97389.33;1686492;83;21220;-65
2021/03/18 10:54:20;;;;;;;3.83;2.12;;;;;;;7.90;64.28;97388.66;1715946;83;21152;-65
2021/03/18 10:56:52;;;;;;;3.42;2.50;;;;;;;8.13;62.68;97382.70;1716057;83;21513;-66
2021/03/18 10:59:22;;;;;;;3.22;2.12;;;;;;;8.44;61.85;97376.34;1716204;82;21321;-65
2021/03/18 11:02:04;;;;;;;3.72;2.00;;;;;;;8.70;62.15;97375.17;1716010;82;21613;-65
2021/03/18 11:04:52;;;;;;;2.90;1.95;;;;;;;9.00;61.37;97369.66;1715867;82;21169;-65
2021/03/18 11:07:20;;;;;;;3.02;1.60;;;;;;;9.34;61.21;97367.20;1715999;83;21165;-65
2021/03/18 11:10:14;;;;;;;2.45;1.72;;;;;;;9.67;61.08;97360.50;1715666;82;21155;-65
2021/03/18 11:12:45;;;;;;;5.67;2.02;;;;;;;9.65;54.82;97365.83;1716142;83;21140;-64
2021/03/18 11:15:53;;;;;;;3.00;2.00;;;;;;;8.97;55.90;97370.77;1714225;83;21133;-65
2021/03/18 11:18:45;;;;;;;2.35;1.80;;;;;;;8.93;55.68;97365.55;1707810;84;21309;-64
2021/03/18 11:21:26;;;;;;;3.05;1.50;;;;;;;9.16;56.36;97365.11;1707786;82;21198;-64
2021/03/18 11:24:03;;;;;;;2.92;1.47;;;;;;;8.76;54.95;97359.05;1678308;84;21178;-64
2021/03/18 11:26:32;;;;;;;5.12;1.67;;;;;;;8.51;54.99;97357.98;1707736;84;21171;-64
2021/03/18 11:29:22;;;;;;;2.35;1.25;;;;;;;8.73;57.30;97353.69;1707959;82;21655;-64
2021/03/18 11:32:12;;;;;;;2.58;1.50;;;;;;;8.61;54.09;97339.32;1665473;86;21181;-64
2021/03/18 11:34:41;;;;;;;1.70;1.35;;;;;;;8.31;55.07;97344.33;1693495;85;21173;-63
2021/03/18 11:37:12;;;;;;;2.50;1.65;;;;;;;8.25;56.12;97340.19;1693868;85;21232;-63
2021/03/18 11:39:41;;;;;;;3.25;1.80;;;;;;;8.29;57.38;97340.23;1693678;84;21149;-63
2021/03/18 11:42:09;;;;;;;2.17;1.57;;;;;;;8.69;58.42;97338.59;1693581;85;21657;-64
2021/03/18 11:44:39;;;;;;;5.15;2.02;;;;;;;9.00;57.02;97334.22;1693755;84;21188;-63
2021/03/18 11:47:13;;;;;;;7.85;2.27;;;;;;;9.27;59.01;97329.91;1693582;84;21228;-65
2021/03/18 11:49:44;;;;;;;3.70;2.37;;;;;;;9.59;59.63;97335.82;1693875;84;21188;-65
2021/03/18 11:52:12;;;;;;;6.62;2.22;;;;;;;9.71;58.11;97332.02;1693847;84;21275;-64
2021/03/18 11:54:40;;;;;;;2.45;1.30;;;;;;;9.64;55.94;97327.11;1693611;85;21268;-67
2021/03/18 11:57:09;;;;;;;2.58;1.77;;;;;;;9.66;54.76;97326.46;1693733;84;21165;-64
2021/03/18 11:59:38;;;;;;;1.87;1.40;;;;;;;9.69;59.01;97323.59;1693902;85;21704;-65
2021/03/18 12:02:05;;;;;;;2.30;1.32;;;;;;;9.66;54.92;97322.09;1693550;85;21188;-64
2021/03/18 12:04:34;;;;;;;3.30;1.67;;;;;;;9.45;55.75;97324.23;1693585;84;21169;-64
2021/03/18 12:07:02;;;;;;;1.82;1.22;;;;;;;9.57;56.62;97320.44;1693664;85;21145;-64
2021/03/18 12:09:30;;;;;;;2.10;1.45;;;;;;;9.01;55.70;97319.50;1693762;85;21185;-64